sensor_id;sensor_type;location;lat;lon;timestamp;temperature;humidity
35206;DHT22;46555;45.620;13.796;2022-09-06T00:01:44;20.20;99.70
35206;DHT22;46555;45.620;13.796;2022-09-06T00:04:09;20.20;99.70
35206;DHT22;46555;45.620;13.796;2022-09-06T00:06:35;20.10;99.50
35206;DHT22;46555;45.620;13.796;2022-09-06T00:09:01;20.10;99.50
35206;DHT22;46555;45.620;13.796;2022-09-06T00:11:27;20.10;99.40
35206;DHT22;46555;45.620;13.796;2022-09-06T00:13:53;20.10;99.50
35206;DHT22;46555;45.620;13.796;2022-09-06T00:16:20;20.10;99.60
35206;DHT22;46555;45.620;13.796;2022-09-06T00:18:51;20.10;99.80
35206;DHT22;46555;45.620;13.796;2022-09-06T00:21:27;20.10;99.90
35206;DHT22;46555;45.620;13.796;2022-09-06T00:23:53;20.10;99.90
35206;DHT22;46555;45.620;13.796;2022-09-06T00:26:21;20.10;99.90
35206;DHT22;46555;45.620;13.796;2022-09-06T00:28:47;20.10;99.90
35206;DHT22;46555;45.620;13.796;2022-09-06T00:31:16;20.10;99.90
35206;DHT22;46555;45.620;13.796;2022-09-06T00:33:42;20.10;99.90
35206;DHT22;46555;45.620;13.796;2022-09-06T00:36:09;20.10;99.90
35206;DHT22;46555;45.620;13.796;2022-09-06T00:38:35;20.10;99.90
35206;DHT22;46555;45.620;13.796;2022-09-06T00:41:02;20.10;99.90
35206;DHT22;46555;45.620;13.796;2022-09-06T00:43:27;20.10;99.90
35206;DHT22;46555;45.620;13.796;2022-09-06T00:45:53;20.10;99.90
35206;DHT22;46555;45.620;13.796;2022-09-06T00:48:21;20.10;99.90
35206;DHT22;46555;45.620;13.796;2022-09-06T00:50:50;20.10;99.90
35206;DHT22;46555;45.620;13.796;2022-09-06T00:53:17;20.10;99.70
35206;DHT22;46555;45.620;13.796;2022-09-06T00:55:43;20.20;99.70
35206;DHT22;46555;45.620;13.796;2022-09-06T00:58:10;20.20;99.60
35206;DHT22;46555;45.620;13.796;2022-09-06T01:00:35;20.20;99.50
35206;DHT22;46555;45.620;13.796;2022-09-06T01:03:01;20.20;99.40
35206;DHT22;46555;45.620;13.796;2022-09-06T01:24:52;20.20;99.10
35206;DHT22;46555;45.620;13.796;2022-09-06T01:27:38;20.20;99.30
35206;DHT22;46555;45.620;13.796;2022-09-06T01:30:12;20.20;99.20
35206;DHT22;46555;45.620;13.796;2022-09-06T01:32:59;20.20;99.20
35206;DHT22;46555;45.620;13.796;2022-09-06T01:36:03;20.20;99.20
35206;DHT22;46555;45.620;13.796;2022-09-06T01:38:21;20.20;99.20
35206;DHT22;46555;45.620;13.796;2022-09-06T01:40:47;20.20;99.20
35206;DHT22;46555;45.620;13.796;2022-09-06T01:43:18;20.20;99.20
35206;DHT22;46555;45.620;13.796;2022-09-06T01:51:36;20.10;99.20
35206;DHT22;46555;45.620;13.796;2022-09-06T02:05:32;20.10;99.30
35206;DHT22;46555;45.620;13.796;2022-09-06T02:08:07;20.10;99.30
35206;DHT22;46555;45.620;13.796;2022-09-06T02:10:46;20.10;99.40
35206;DHT22;46555;45.620;13.796;2022-09-06T02:13:14;20.10;99.30
35206;DHT22;46555;45.620;13.796;2022-09-06T02:15:46;20.10;99.40
35206;DHT22;46555;45.620;13.796;2022-09-06T02:18:22;20.00;99.30
35206;DHT22;46555;45.620;13.796;2022-09-06T02:20:51;20.00;99.30
35206;DHT22;46555;45.620;13.796;2022-09-06T02:23:21;20.00;99.20
35206;DHT22;46555;45.620;13.796;2022-09-06T02:26:05;20.00;99.20
35206;DHT22;46555;45.620;13.796;2022-09-06T02:28:32;20.00;99.40
35206;DHT22;46555;45.620;13.796;2022-09-06T02:31:01;20.00;99.40
35206;DHT22;46555;45.620;13.796;2022-09-06T02:33:30;20.00;99.40
35206;DHT22;46555;45.620;13.796;2022-09-06T02:36:05;20.00;99.40
35206;DHT22;46555;45.620;13.796;2022-09-06T02:38:34;19.90;99.50
35206;DHT22;46555;45.620;13.796;2022-09-06T02:41:01;19.90;99.70
35206;DHT22;46555;45.620;13.796;2022-09-06T02:43:27;19.90;99.70
35206;DHT22;46555;45.620;13.796;2022-09-06T02:45:53;19.80;99.80
35206;DHT22;46555;45.620;13.796;2022-09-06T02:48:19;19.80;99.90
35206;DHT22;46555;45.620;13.796;2022-09-06T02:50:45;19.70;99.90
35206;DHT22;46555;45.620;13.796;2022-09-06T02:53:13;19.70;99.90
35206;DHT22;46555;45.620;13.796;2022-09-06T02:55:40;19.60;99.90
35206;DHT22;46555;45.620;13.796;2022-09-06T02:58:09;19.60;99.90
35206;DHT22;46555;45.620;13.796;2022-09-06T03:00:36;19.60;99.90
35206;DHT22;46555;45.620;13.796;2022-09-06T03:03:02;19.60;99.90
35206;DHT22;46555;45.620;13.796;2022-09-06T03:05:29;19.60;99.90
35206;DHT22;46555;45.620;13.796;2022-09-06T03:07:55;19.50;99.90
35206;DHT22;46555;45.620;13.796;2022-09-06T03:10:21;19.50;99.90
35206;DHT22;46555;45.620;13.796;2022-09-06T03:12:48;19.60;99.90
35206;DHT22;46555;45.620;13.796;2022-09-06T03:15:14;19.50;99.90
35206;DHT22;46555;45.620;13.796;2022-09-06T03:17:41;19.50;99.90
35206;DHT22;46555;45.620;13.796;2022-09-06T03:20:08;19.50;99.90
35206;DHT22;46555;45.620;13.796;2022-09-06T03:22:35;19.50;99.90
35206;DHT22;46555;45.620;13.796;2022-09-06T03:25:01;19.50;99.90
35206;DHT22;46555;45.620;13.796;2022-09-06T03:27:26;19.40;99.90
35206;DHT22;46555;45.620;13.796;2022-09-06T03:29:52;19.40;99.90
35206;DHT22;46555;45.620;13.796;2022-09-06T03:32:18;19.40;99.90
35206;DHT22;46555;45.620;13.796;2022-09-06T03:34:43;19.50;99.90
35206;DHT22;46555;45.620;13.796;2022-09-06T03:37:09;19.40;99.90
35206;DHT22;46555;45.620;13.796;2022-09-06T03:39:35;19.40;99.90
35206;DHT22;46555;45.620;13.796;2022-09-06T03:42:01;19.40;99.90
35206;DHT22;46555;45.620;13.796;2022-09-06T03:44:26;19.40;99.90
35206;DHT22;46555;45.620;13.796;2022-09-06T03:46:52;19.50;99.90
35206;DHT22;46555;45.620;13.796;2022-09-06T03:52:03;19.40;99.90
35206;DHT22;46555;45.620;13.796;2022-09-06T03:54:29;19.40;99.90
35206;DHT22;46555;45.620;13.796;2022-09-06T03:56:55;19.40;99.90
35206;DHT22;46555;45.620;13.796;2022-09-06T03:59:21;19.40;99.90
35206;DHT22;46555;45.620;13.796;2022-09-06T04:01:47;19.40;99.90
35206;DHT22;46555;45.620;13.796;2022-09-06T04:04:13;19.40;99.90
35206;DHT22;46555;45.620;13.796;2022-09-06T04:06:39;19.40;99.90
35206;DHT22;46555;45.620;13.796;2022-09-06T04:09:04;19.40;99.90
35206;DHT22;46555;45.620;13.796;2022-09-06T04:11:30;19.40;99.90
35206;DHT22;46555;45.620;13.796;2022-09-06T04:13:56;19.30;99.90
35206;DHT22;46555;45.620;13.796;2022-09-06T04:16:21;19.30;99.90
35206;DHT22;46555;45.620;13.796;2022-09-06T04:18:47;19.30;99.90
35206;DHT22;46555;45.620;13.796;2022-09-06T04:21:13;19.40;99.90
35206;DHT22;46555;45.620;13.796;2022-09-06T04:23:39;19.40;99.90
35206;DHT22;46555;45.620;13.796;2022-09-06T04:26:04;19.40;99.90
35206;DHT22;46555;45.620;13.796;2022-09-06T04:28:30;19.40;99.90
35206;DHT22;46555;45.620;13.796;2022-09-06T04:30:58;19.40;99.90
35206;DHT22;46555;45.620;13.796;2022-09-06T04:33:25;19.40;99.90
35206;DHT22;46555;45.620;13.796;2022-09-06T04:35:52;19.40;99.90
35206;DHT22;46555;45.620;13.796;2022-09-06T04:38:18;19.40;99.90
35206;DHT22;46555;45.620;13.796;2022-09-06T04:40:44;19.50;99.90
35206;DHT22;46555;45.620;13.796;2022-09-06T04:43:10;19.50;99.90
35206;DHT22;46555;45.620;13.796;2022-09-06T04:45:36;19.60;99.80
35206;DHT22;46555;45.620;13.796;2022-09-06T04:48:02;19.60;99.80
35206;DHT22;46555;45.620;13.796;2022-09-06T04:50:28;19.60;99.70
35206;DHT22;46555;45.620;13.796;2022-09-06T04:52:53;19.60;99.50
35206;DHT22;46555;45.620;13.796;2022-09-06T04:55:19;19.70;99.50
35206;DHT22;46555;45.620;13.796;2022-09-06T04:57:45;19.70;99.50
35206;DHT22;46555;45.620;13.796;2022-09-06T05:00:11;19.70;99.40
35206;DHT22;46555;45.620;13.796;2022-09-06T05:02:37;19.70;99.30
35206;DHT22;46555;45.620;13.796;2022-09-06T05:05:02;19.80;99.40
35206;DHT22;46555;45.620;13.796;2022-09-06T05:07:29;19.80;99.40
35206;DHT22;46555;45.620;13.796;2022-09-06T05:09:55;19.80;99.20
35206;DHT22;46555;45.620;13.796;2022-09-06T05:12:21;19.90;99.20
35206;DHT22;46555;45.620;13.796;2022-09-06T05:14:47;19.90;99.10
35206;DHT22;46555;45.620;13.796;2022-09-06T05:17:12;20.00;98.90
35206;DHT22;46555;45.620;13.796;2022-09-06T05:19:39;20.10;98.70
35206;DHT22;46555;45.620;13.796;2022-09-06T05:22:05;20.10;98.70
35206;DHT22;46555;45.620;13.796;2022-09-06T05:24:31;20.20;98.50
35206;DHT22;46555;45.620;13.796;2022-09-06T05:26:57;20.20;98.50
35206;DHT22;46555;45.620;13.796;2022-09-06T05:29:23;20.20;98.40
35206;DHT22;46555;45.620;13.796;2022-09-06T05:31:49;20.30;98.80
35206;DHT22;46555;45.620;13.796;2022-09-06T05:34:15;20.30;98.30
35206;DHT22;46555;45.620;13.796;2022-09-06T05:36:40;20.40;98.30
35206;DHT22;46555;45.620;13.796;2022-09-06T05:39:06;20.40;98.30
35206;DHT22;46555;45.620;13.796;2022-09-06T05:41:32;20.50;98.20
35206;DHT22;46555;45.620;13.796;2022-09-06T05:43:58;20.50;98.20
35206;DHT22;46555;45.620;13.796;2022-09-06T05:46:24;20.50;98.10
35206;DHT22;46555;45.620;13.796;2022-09-06T05:48:58;20.60;98.00
35206;DHT22;46555;45.620;13.796;2022-09-06T05:51:32;20.70;97.90
35206;DHT22;46555;45.620;13.796;2022-09-06T05:53:58;20.70;97.70
35206;DHT22;46555;45.620;13.796;2022-09-06T05:56:24;20.80;97.70
35206;DHT22;46555;45.620;13.796;2022-09-06T05:58:50;20.80;97.60
35206;DHT22;46555;45.620;13.796;2022-09-06T06:01:18;20.90;97.50
35206;DHT22;46555;45.620;13.796;2022-09-06T06:04:02;21.00;97.50
35206;DHT22;46555;45.620;13.796;2022-09-06T06:06:31;21.00;97.50
35206;DHT22;46555;45.620;13.796;2022-09-06T06:08:57;21.00;97.20
35206;DHT22;46555;45.620;13.796;2022-09-06T06:11:23;21.10;97.10
35206;DHT22;46555;45.620;13.796;2022-09-06T06:13:50;21.20;97.30
35206;DHT22;46555;45.620;13.796;2022-09-06T06:16:18;21.30;97.00
35206;DHT22;46555;45.620;13.796;2022-09-06T06:18:45;21.30;96.90
35206;DHT22;46555;45.620;13.796;2022-09-06T06:21:31;21.40;96.90
35206;DHT22;46555;45.620;13.796;2022-09-06T06:24:00;21.50;96.90
35206;DHT22;46555;45.620;13.796;2022-09-06T06:26:27;21.50;96.80
35206;DHT22;46555;45.620;13.796;2022-09-06T06:28:53;21.60;96.90
35206;DHT22;46555;45.620;13.796;2022-09-06T06:31:21;21.70;96.70
35206;DHT22;46555;45.620;13.796;2022-09-06T06:33:48;21.80;96.70
35206;DHT22;46555;45.620;13.796;2022-09-06T06:38:42;21.90;96.60
35206;DHT22;46555;45.620;13.796;2022-09-06T06:41:10;22.00;96.30
35206;DHT22;46555;45.620;13.796;2022-09-06T06:43:36;22.10;96.30
35206;DHT22;46555;45.620;13.796;2022-09-06T06:46:16;22.10;96.20
35206;DHT22;46555;45.620;13.796;2022-09-06T06:48:43;22.20;96.20
35206;DHT22;46555;45.620;13.796;2022-09-06T06:51:11;22.20;96.10
35206;DHT22;46555;45.620;13.796;2022-09-06T06:53:37;22.30;96.10
35206;DHT22;46555;45.620;13.796;2022-09-06T06:56:34;22.40;96.00
35206;DHT22;46555;45.620;13.796;2022-09-06T06:59:01;22.40;96.10
35206;DHT22;46555;45.620;13.796;2022-09-06T07:01:30;22.50;95.80
35206;DHT22;46555;45.620;13.796;2022-09-06T07:03:56;22.60;95.90
35206;DHT22;46555;45.620;13.796;2022-09-06T07:06:22;22.70;95.90
35206;DHT22;46555;45.620;13.796;2022-09-06T07:08:48;22.70;95.90
35206;DHT22;46555;45.620;13.796;2022-09-06T07:11:16;22.70;95.70
35206;DHT22;46555;45.620;13.796;2022-09-06T07:13:42;22.90;95.60
35206;DHT22;46555;45.620;13.796;2022-09-06T07:16:09;22.90;95.20
35206;DHT22;46555;45.620;13.796;2022-09-06T07:18:35;23.00;94.80
35206;DHT22;46555;45.620;13.796;2022-09-06T07:21:16;23.10;94.50
35206;DHT22;46555;45.620;13.796;2022-09-06T07:23:42;23.20;94.60
35206;DHT22;46555;45.620;13.796;2022-09-06T07:26:23;23.30;93.40
35206;DHT22;46555;45.620;13.796;2022-09-06T07:29:02;23.40;93.10
35206;DHT22;46555;45.620;13.796;2022-09-06T07:31:29;23.50;93.00
35206;DHT22;46555;45.620;13.796;2022-09-06T07:33:56;23.60;93.40
35206;DHT22;46555;45.620;13.796;2022-09-06T07:36:22;23.60;93.20
35206;DHT22;46555;45.620;13.796;2022-09-06T07:38:49;23.70;93.10
35206;DHT22;46555;45.620;13.796;2022-09-06T07:41:16;23.80;92.80
35206;DHT22;46555;45.620;13.796;2022-09-06T07:43:42;23.80;92.90
35206;DHT22;46555;45.620;13.796;2022-09-06T07:46:13;23.80;92.90
35206;DHT22;46555;45.620;13.796;2022-09-06T07:48:41;23.90;92.90
35206;DHT22;46555;45.620;13.796;2022-09-06T07:51:11;23.90;92.70
35206;DHT22;46555;45.620;13.796;2022-09-06T07:53:39;24.00;93.30
35206;DHT22;46555;45.620;13.796;2022-09-06T07:56:08;24.10;92.80
35206;DHT22;46555;45.620;13.796;2022-09-06T07:58:34;24.20;93.10
35206;DHT22;46555;45.620;13.796;2022-09-06T08:01:29;24.30;92.90
35206;DHT22;46555;45.620;13.796;2022-09-06T08:04:01;24.30;92.60
35206;DHT22;46555;45.620;13.796;2022-09-06T08:06:28;24.40;92.80
35206;DHT22;46555;45.620;13.796;2022-09-06T08:08:55;24.30;93.20
35206;DHT22;46555;45.620;13.796;2022-09-06T08:11:23;24.40;93.10
35206;DHT22;46555;45.620;13.796;2022-09-06T08:13:50;24.40;92.80
35206;DHT22;46555;45.620;13.796;2022-09-06T08:16:17;24.40;93.20
35206;DHT22;46555;45.620;13.796;2022-09-06T08:18:44;24.40;92.70
35206;DHT22;46555;45.620;13.796;2022-09-06T08:21:12;24.40;92.70
35206;DHT22;46555;45.620;13.796;2022-09-06T08:23:40;24.40;92.90
35206;DHT22;46555;45.620;13.796;2022-09-06T08:26:09;24.40;92.10
35206;DHT22;46555;45.620;13.796;2022-09-06T08:28:35;24.40;92.40
35206;DHT22;46555;45.620;13.796;2022-09-06T08:31:05;24.40;92.50
35206;DHT22;46555;45.620;13.796;2022-09-06T08:33:31;24.50;92.90
35206;DHT22;46555;45.620;13.796;2022-09-06T08:35:57;24.50;93.10
35206;DHT22;46555;45.620;13.796;2022-09-06T08:38:23;24.60;93.40
35206;DHT22;46555;45.620;13.796;2022-09-06T08:40:50;24.70;92.90
35206;DHT22;46555;45.620;13.796;2022-09-06T08:43:19;24.80;93.10
35206;DHT22;46555;45.620;13.796;2022-09-06T08:45:48;24.90;92.90
35206;DHT22;46555;45.620;13.796;2022-09-06T08:48:15;25.00;93.10
35206;DHT22;46555;45.620;13.796;2022-09-06T08:50:46;25.00;92.90
35206;DHT22;46555;45.620;13.796;2022-09-06T08:53:18;25.00;91.70
35206;DHT22;46555;45.620;13.796;2022-09-06T08:56:22;25.00;92.60
35206;DHT22;46555;45.620;13.796;2022-09-06T08:58:58;24.90;92.60
35206;DHT22;46555;45.620;13.796;2022-09-06T09:01:33;25.00;92.60
35206;DHT22;46555;45.620;13.796;2022-09-06T09:04:04;24.90;92.10
35206;DHT22;46555;45.620;13.796;2022-09-06T09:06:32;24.90;92.00
35206;DHT22;46555;45.620;13.796;2022-09-06T09:09:12;24.90;92.90
35206;DHT22;46555;45.620;13.796;2022-09-06T09:11:41;24.90;91.50
35206;DHT22;46555;45.620;13.796;2022-09-06T09:14:20;25.00;92.20
35206;DHT22;46555;45.620;13.796;2022-09-06T09:16:50;25.10;92.10
35206;DHT22;46555;45.620;13.796;2022-09-06T09:19:16;25.20;92.30
35206;DHT22;46555;45.620;13.796;2022-09-06T09:21:42;25.30;92.10
35206;DHT22;46555;45.620;13.796;2022-09-06T09:24:10;25.30;92.20
35206;DHT22;46555;45.620;13.796;2022-09-06T09:27:01;25.30;92.00
35206;DHT22;46555;45.620;13.796;2022-09-06T09:29:28;25.40;92.40
35206;DHT22;46555;45.620;13.796;2022-09-06T09:31:54;25.40;92.40
35206;DHT22;46555;45.620;13.796;2022-09-06T09:34:31;25.50;92.50
35206;DHT22;46555;45.620;13.796;2022-09-06T09:37:23;25.50;92.20
35206;DHT22;46555;45.620;13.796;2022-09-06T09:39:53;25.60;91.90
35206;DHT22;46555;45.620;13.796;2022-09-06T09:42:37;25.60;91.80
35206;DHT22;46555;45.620;13.796;2022-09-06T09:45:20;25.70;92.60
35206;DHT22;46555;45.620;13.796;2022-09-06T09:47:47;25.90;92.20
35206;DHT22;46555;45.620;13.796;2022-09-06T09:50:33;25.90;90.90
35206;DHT22;46555;45.620;13.796;2022-09-06T09:53:10;26.00;91.30
35206;DHT22;46555;45.620;13.796;2022-09-06T09:55:36;26.10;92.40
35206;DHT22;46555;45.620;13.796;2022-09-06T09:58:03;26.20;91.00
35206;DHT22;46555;45.620;13.796;2022-09-06T10:00:39;26.30;91.40
35206;DHT22;46555;45.620;13.796;2022-09-06T10:03:18;26.30;92.40
35206;DHT22;46555;45.620;13.796;2022-09-06T10:05:57;26.40;92.20
35206;DHT22;46555;45.620;13.796;2022-09-06T10:08:26;26.30;91.70
35206;DHT22;46555;45.620;13.796;2022-09-06T10:10:54;26.30;92.20
35206;DHT22;46555;45.620;13.796;2022-09-06T10:13:27;26.20;92.20
35206;DHT22;46555;45.620;13.796;2022-09-06T10:15:58;26.20;91.60
35206;DHT22;46555;45.620;13.796;2022-09-06T10:18:42;26.20;91.30
35206;DHT22;46555;45.620;13.796;2022-09-06T10:21:14;26.30;91.70
35206;DHT22;46555;45.620;13.796;2022-09-06T10:24:14;26.40;91.10
35206;DHT22;46555;45.620;13.796;2022-09-06T10:29:12;26.40;91.10
35206;DHT22;46555;45.620;13.796;2022-09-06T10:47:23;26.00;92.70
35206;DHT22;46555;45.620;13.796;2022-09-06T10:49:54;26.00;93.50
35206;DHT22;46555;45.620;13.796;2022-09-06T10:52:25;25.90;94.10
35206;DHT22;46555;45.620;13.796;2022-09-06T10:54:56;25.70;95.80
35206;DHT22;46555;45.620;13.796;2022-09-06T10:57:52;25.60;96.10
35206;DHT22;46555;45.620;13.796;2022-09-06T11:00:20;25.70;95.70
35206;DHT22;46555;45.620;13.796;2022-09-06T11:05:36;26.00;96.20
35206;DHT22;46555;45.620;13.796;2022-09-06T11:08:14;26.20;95.90
35206;DHT22;46555;45.620;13.796;2022-09-06T11:10:44;26.40;92.30
35206;DHT22;46555;45.620;13.796;2022-09-06T11:13:21;26.60;93.00
35206;DHT22;46555;45.620;13.796;2022-09-06T11:16:00;26.80;93.50
35206;DHT22;46555;45.620;13.796;2022-09-06T11:18:30;27.00;91.80
35206;DHT22;46555;45.620;13.796;2022-09-06T11:29:28;27.20;94.00
35206;DHT22;46555;45.620;13.796;2022-09-06T11:31:57;27.10;93.50
35206;DHT22;46555;45.620;13.796;2022-09-06T11:34:26;27.10;92.40
35206;DHT22;46555;45.620;13.796;2022-09-06T11:37:05;27.10;94.00
35206;DHT22;46555;45.620;13.796;2022-09-06T11:39:38;27.10;93.80
35206;DHT22;46555;45.620;13.796;2022-09-06T11:43:10;27.30;94.20
35206;DHT22;46555;45.620;13.796;2022-09-06T11:51:00;27.40;93.60
35206;DHT22;46555;45.620;13.796;2022-09-06T11:53:33;27.40;93.20
35206;DHT22;46555;45.620;13.796;2022-09-06T11:58:43;27.40;92.00
35206;DHT22;46555;45.620;13.796;2022-09-06T12:06:40;27.60;91.80
35206;DHT22;46555;45.620;13.796;2022-09-06T12:09:32;27.80;91.10
35206;DHT22;46555;45.620;13.796;2022-09-06T12:11:59;29.00;90.00
35206;DHT22;46555;45.620;13.796;2022-09-06T12:25:15;34.30;74.90
35206;DHT22;46555;45.620;13.796;2022-09-06T12:27:56;35.20;73.90
35206;DHT22;46555;45.620;13.796;2022-09-06T12:30:49;35.90;71.40
35206;DHT22;46555;45.620;13.796;2022-09-06T12:35:41;36.50;69.70
35206;DHT22;46555;45.620;13.796;2022-09-06T12:38:13;36.60;68.20
35206;DHT22;46555;45.620;13.796;2022-09-06T12:40:44;37.10;68.40
35206;DHT22;46555;45.620;13.796;2022-09-06T12:43:14;37.50;66.10
35206;DHT22;46555;45.620;13.796;2022-09-06T12:45:46;37.80;63.70
35206;DHT22;46555;45.620;13.796;2022-09-06T12:48:23;38.00;61.50
35206;DHT22;46555;45.620;13.796;2022-09-06T12:51:03;38.20;60.40
35206;DHT22;46555;45.620;13.796;2022-09-06T12:53:29;38.50;61.10
35206;DHT22;46555;45.620;13.796;2022-09-06T12:56:08;38.80;60.00
35206;DHT22;46555;45.620;13.796;2022-09-06T12:58:35;38.80;58.80
35206;DHT22;46555;45.620;13.796;2022-09-06T13:01:14;38.40;58.80
35206;DHT22;46555;45.620;13.796;2022-09-06T13:06:18;37.40;60.80
35206;DHT22;46555;45.620;13.796;2022-09-06T13:08:50;37.50;61.10
35206;DHT22;46555;45.620;13.796;2022-09-06T13:11:22;37.70;59.50
35206;DHT22;46555;45.620;13.796;2022-09-06T13:13:51;37.70;59.80
35206;DHT22;46555;45.620;13.796;2022-09-06T13:16:29;38.00;60.20
35206;DHT22;46555;45.620;13.796;2022-09-06T13:21:57;37.80;59.30
35206;DHT22;46555;45.620;13.796;2022-09-06T13:26:51;36.50;64.10
35206;DHT22;46555;45.620;13.796;2022-09-06T13:29:21;36.40;63.30
35206;DHT22;46555;45.620;13.796;2022-09-06T13:31:48;36.20;62.40
35206;DHT22;46555;45.620;13.796;2022-09-06T13:34:31;36.20;63.30
35206;DHT22;46555;45.620;13.796;2022-09-06T13:37:08;36.70;63.00
35206;DHT22;46555;45.620;13.796;2022-09-06T13:39:36;36.20;62.70
35206;DHT22;46555;45.620;13.796;2022-09-06T13:42:09;36.30;64.10
35206;DHT22;46555;45.620;13.796;2022-09-06T13:44:37;36.70;63.80
35206;DHT22;46555;45.620;13.796;2022-09-06T13:47:04;37.40;63.60
35206;DHT22;46555;45.620;13.796;2022-09-06T13:49:31;37.70;62.30
35206;DHT22;46555;45.620;13.796;2022-09-06T13:52:02;37.80;62.80
35206;DHT22;46555;45.620;13.796;2022-09-06T13:54:29;38.10;62.60
35206;DHT22;46555;45.620;13.796;2022-09-06T13:56:55;37.70;62.50
35206;DHT22;46555;45.620;13.796;2022-09-06T13:59:21;37.30;63.00
35206;DHT22;46555;45.620;13.796;2022-09-06T14:02:01;37.50;64.40
35206;DHT22;46555;45.620;13.796;2022-09-06T14:04:28;37.80;62.90
35206;DHT22;46555;45.620;13.796;2022-09-06T14:06:54;37.80;62.20
35206;DHT22;46555;45.620;13.796;2022-09-06T14:09:20;37.80;62.60
35206;DHT22;46555;45.620;13.796;2022-09-06T14:11:45;38.30;62.70
35206;DHT22;46555;45.620;13.796;2022-09-06T14:14:11;38.00;61.40
35206;DHT22;46555;45.620;13.796;2022-09-06T14:16:37;38.00;60.50
35206;DHT22;46555;45.620;13.796;2022-09-06T14:19:03;38.40;60.60
35206;DHT22;46555;45.620;13.796;2022-09-06T14:21:30;37.90;60.00
35206;DHT22;46555;45.620;13.796;2022-09-06T14:23:56;37.60;59.40
35206;DHT22;46555;45.620;13.796;2022-09-06T14:26:22;36.80;59.90
35206;DHT22;46555;45.620;13.796;2022-09-06T14:28:49;36.60;60.90
35206;DHT22;46555;45.620;13.796;2022-09-06T14:31:17;36.90;60.70
35206;DHT22;46555;45.620;13.796;2022-09-06T14:33:43;37.10;61.50
35206;DHT22;46555;45.620;13.796;2022-09-06T14:36:14;37.40;61.30
35206;DHT22;46555;45.620;13.796;2022-09-06T14:38:41;37.80;61.80
35206;DHT22;46555;45.620;13.796;2022-09-06T14:41:07;37.80;61.30
35206;DHT22;46555;45.620;13.796;2022-09-06T14:43:34;37.90;61.90
35206;DHT22;46555;45.620;13.796;2022-09-06T14:46:27;38.10;62.60
35206;DHT22;46555;45.620;13.796;2022-09-06T14:49:04;38.10;63.10
35206;DHT22;46555;45.620;13.796;2022-09-06T14:51:32;38.10;63.00
35206;DHT22;46555;45.620;13.796;2022-09-06T14:54:02;37.40;63.60
35206;DHT22;46555;45.620;13.796;2022-09-06T14:56:28;37.00;64.10
35206;DHT22;46555;45.620;13.796;2022-09-06T14:58:55;36.50;64.40
35206;DHT22;46555;45.620;13.796;2022-09-06T15:01:25;36.00;66.40
35206;DHT22;46555;45.620;13.796;2022-09-06T15:03:57;35.80;67.70
35206;DHT22;46555;45.620;13.796;2022-09-06T15:06:25;35.60;67.70
35206;DHT22;46555;45.620;13.796;2022-09-06T15:08:51;35.50;68.60
35206;DHT22;46555;45.620;13.796;2022-09-06T15:11:35;35.60;68.40
35206;DHT22;46555;45.620;13.796;2022-09-06T15:14:03;35.80;68.20
35206;DHT22;46555;45.620;13.796;2022-09-06T15:16:29;35.80;65.80
35206;DHT22;46555;45.620;13.796;2022-09-06T15:18:55;36.20;63.80
35206;DHT22;46555;45.620;13.796;2022-09-06T15:21:21;36.30;63.90
35206;DHT22;46555;45.620;13.796;2022-09-06T15:23:47;36.50;63.10
35206;DHT22;46555;45.620;13.796;2022-09-06T15:26:14;36.90;63.00
35206;DHT22;46555;45.620;13.796;2022-09-06T15:28:41;37.20;62.50
35206;DHT22;46555;45.620;13.796;2022-09-06T15:31:08;37.30;64.00
35206;DHT22;46555;45.620;13.796;2022-09-06T15:33:35;37.40;65.00
35206;DHT22;46555;45.620;13.796;2022-09-06T15:36:02;37.60;64.00
35206;DHT22;46555;45.620;13.796;2022-09-06T15:38:34;37.70;63.30
35206;DHT22;46555;45.620;13.796;2022-09-06T15:43:32;37.60;62.60
35206;DHT22;46555;45.620;13.796;2022-09-06T16:32:17;30.90;76.00
35206;DHT22;46555;45.620;13.796;2022-09-06T16:34:43;30.50;78.90
35206;DHT22;46555;45.620;13.796;2022-09-06T16:37:10;30.30;79.90
35206;DHT22;46555;45.620;13.796;2022-09-06T16:39:35;30.00;81.00
35206;DHT22;46555;45.620;13.796;2022-09-06T16:42:01;29.80;80.20
35206;DHT22;46555;45.620;13.796;2022-09-06T16:44:28;29.60;83.50
35206;DHT22;46555;45.620;13.796;2022-09-06T16:46:54;29.30;85.70
35206;DHT22;46555;45.620;13.796;2022-09-06T16:49:21;29.20;87.20
35206;DHT22;46555;45.620;13.796;2022-09-06T16:51:48;28.90;87.80
35206;DHT22;46555;45.620;13.796;2022-09-06T16:54:15;28.70;87.10
35206;DHT22;46555;45.620;13.796;2022-09-06T16:56:42;28.50;88.50
35206;DHT22;46555;45.620;13.796;2022-09-06T16:59:09;28.40;83.80
35206;DHT22;46555;45.620;13.796;2022-09-06T17:01:37;28.20;87.10
35206;DHT22;46555;45.620;13.796;2022-09-06T17:04:05;28.10;90.00
35206;DHT22;46555;45.620;13.796;2022-09-06T17:06:32;27.90;89.70
35206;DHT22;46555;45.620;13.796;2022-09-06T17:09:02;27.70;90.20
35206;DHT22;46555;45.620;13.796;2022-09-06T17:11:29;27.60;90.80
35206;DHT22;46555;45.620;13.796;2022-09-06T17:13:55;27.50;92.00
35206;DHT22;46555;45.620;13.796;2022-09-06T17:16:22;27.30;91.40
35206;DHT22;46555;45.620;13.796;2022-09-06T17:19:07;27.20;91.20
35206;DHT22;46555;45.620;13.796;2022-09-06T17:21:33;27.10;91.70
35206;DHT22;46555;45.620;13.796;2022-09-06T17:24:00;27.00;92.10
35206;DHT22;46555;45.620;13.796;2022-09-06T17:26:30;26.90;92.40
35206;DHT22;46555;45.620;13.796;2022-09-06T17:28:56;26.80;92.80
35206;DHT22;46555;45.620;13.796;2022-09-06T17:31:22;26.70;93.00
35206;DHT22;46555;45.620;13.796;2022-09-06T17:33:48;26.60;92.90
35206;DHT22;46555;45.620;13.796;2022-09-06T17:36:20;26.50;92.90
35206;DHT22;46555;45.620;13.796;2022-09-06T17:38:48;26.50;92.80
35206;DHT22;46555;45.620;13.796;2022-09-06T17:41:25;26.40;92.80
35206;DHT22;46555;45.620;13.796;2022-09-06T17:43:53;26.40;92.60
35206;DHT22;46555;45.620;13.796;2022-09-06T17:46:20;26.30;92.80
35206;DHT22;46555;45.620;13.796;2022-09-06T17:48:46;26.20;92.80
35206;DHT22;46555;45.620;13.796;2022-09-06T17:51:12;26.20;92.80
35206;DHT22;46555;45.620;13.796;2022-09-06T17:53:38;26.20;92.60
35206;DHT22;46555;45.620;13.796;2022-09-06T17:56:09;26.10;92.70
35206;DHT22;46555;45.620;13.796;2022-09-06T17:58:35;26.10;92.80
35206;DHT22;46555;45.620;13.796;2022-09-06T18:01:12;26.00;92.80
35206;DHT22;46555;45.620;13.796;2022-09-06T18:03:41;26.00;92.80
35206;DHT22;46555;45.620;13.796;2022-09-06T18:06:13;26.00;93.00